Time;durP1;ratioP1;P1;durP2;ratioP2;P2;SDS_P1;SDS_P2;PMS_P1;PMS_P2;Temp;Humidity;BMP_temperature;BMP_pressure;BME280_temperature;BME280_humidity;BME280_pressure;Samples;Min_cycle;Max_cycle;Signal;HPM_P1;HPM_P2
2021/06/17 04:56:13;;;;;;;3.25;2.92;;;;;;;28.30;40.27;100492.66;1855757;77;22628;-68
2021/06/17 04:58:42;;;;;;;6.75;2.98;;;;;;;28.05;41.09;100496.14;1830666;78;20934;-69
2021/06/17 05:01:09;;;;;;;6.10;2.98;;;;;;;27.85;41.62;100491.41;1829348;78;21920;-70
2021/06/17 05:03:37;;;;;;;7.95;3.02;;;;;;;27.82;41.92;100501.14;1829191;78;20926;-68
2021/06/17 05:06:04;;;;;;;3.42;2.80;;;;;;;27.91;41.71;100505.89;1824161;77;20922;-66
2021/06/17 05:11:19;;;;;;;2.92;2.70;;;;;;;27.95;41.77;100497.80;1800112;76;20899;-68
2021/06/17 05:13:46;;;;;;;4.17;2.52;;;;;;;27.89;41.83;100491.86;1837953;76;20994;-68
2021/06/17 05:16:13;;;;;;;7.00;3.35;;;;;;;27.89;42.05;100492.69;1799883;78;21016;-68
2021/06/17 05:18:40;;;;;;;3.70;3.02;;;;;;;27.97;41.86;100497.63;1816810;78;21602;-69
2021/06/17 05:21:07;;;;;;;6.22;2.83;;;;;;;27.98;42.03;100501.95;1809495;78;21005;-69
2021/06/17 05:23:45;;;;;;;3.72;2.72;;;;;;;27.94;42.35;100491.30;1761255;79;20875;-71
2021/06/17 05:26:22;;;;;;;3.37;2.80;;;;;;;28.05;42.08;100495.64;1735527;81;21110;-71
2021/06/17 05:28:51;;;;;;;4.25;2.80;;;;;;;28.14;42.13;100500.38;1802962;78;20977;-68
2021/06/17 05:31:20;;;;;;;6.10;3.12;;;;;;;28.26;41.32;100504.27;1824734;78;20941;-73
2021/06/17 05:33:47;;;;;;;4.53;2.95;;;;;;;28.27;41.50;100509.11;1807957;78;21025;-72
2021/06/17 05:36:17;;;;;;;3.83;2.60;;;;;;;28.31;41.55;100503.70;1767288;80;20890;-75
2021/06/17 05:38:44;;;;;;;5.95;2.85;;;;;;;28.35;41.18;100509.83;1765704;79;21570;-73
2021/06/17 05:41:11;;;;;;;4.53;2.90;;;;;;;28.31;41.36;100509.88;1779124;79;20926;-73
2021/06/17 05:43:38;;;;;;;4.33;2.90;;;;;;;28.27;41.99;100513.95;1768556;78;20986;-73
2021/06/17 05:46:05;;;;;;;2.67;2.40;;;;;;;28.37;42.14;100519.02;1780516;79;20914;-74
2021/06/17 05:48:32;;;;;;;3.90;2.35;;;;;;;28.48;41.51;100522.51;1782743;79;20887;-72
2021/06/17 05:51:00;;;;;;;5.03;3.00;;;;;;;28.52;41.51;100523.28;1803693;76;21206;-70
2021/06/17 05:53:27;;;;;;;3.05;2.77;;;;;;;28.74;41.46;100519.27;1767514;79;20978;-74
2021/06/17 05:55:55;;;;;;;5.53;2.92;;;;;;;28.90;41.23;100525.72;1840247;77;21536;-69
2021/06/17 05:58:25;;;;;;;2.85;2.65;;;;;;;28.91;40.47;100526.03;1804711;77;20970;-69
2021/06/17 06:00:52;;;;;;;7.75;2.80;;;;;;;28.88;40.49;100525.08;1809344;77;22185;-70
2021/06/17 06:03:19;;;;;;;6.75;3.02;;;;;;;28.74;40.77;100528.14;1757282;80;21121;-72
2021/06/17 06:05:46;;;;;;;8.05;3.00;;;;;;;28.75;41.33;100527.12;1743056;80;20892;-70
2021/06/17 06:08:15;;;;;;;3.35;2.50;;;;;;;28.83;40.81;100524.31;1738632;80;20960;-75
2021/06/17 06:10:46;;;;;;;4.95;2.83;;;;;;;28.84;41.04;100533.19;1763294;80;21470;-70
2021/06/17 06:13:15;;;;;;;5.78;3.10;;;;;;;28.86;41.43;100529.30;1774388;78;20947;-76
2021/06/17 06:15:44;;;;;;;4.08;2.95;;;;;;;29.04;40.96;100530.18;1790699;78;20856;-73
2021/06/17 06:18:14;;;;;;;3.77;2.65;;;;;;;29.21;41.37;100535.55;1801095;77;20855;-71
2021/06/17 06:20:46;;;;;;;2.80;2.60;;;;;;;29.50;40.85;100533.73;1816618;77;20911;-69
2021/06/17 06:23:13;;;;;;;3.12;2.75;;;;;;;29.78;39.96;100533.16;1808055;78;20899;-68
2021/06/17 06:25:46;;;;;;;4.72;2.60;;;;;;;29.92;39.29;100539.95;1790978;79;21414;-70
2021/06/17 06:28:12;;;;;;;5.22;2.80;;;;;;;29.95;39.09;100545.75;1804155;77;21872;-71
2021/06/17 06:30:39;;;;;;;5.30;3.20;;;;;;;29.97;39.32;100546.38;1786550;79;20895;-70
2021/06/17 06:33:06;;;;;;;4.33;2.90;;;;;;;29.97;39.67;100549.58;1797382;77;21469;-72
2021/06/17 06:35:33;;;;;;;7.30;2.90;;;;;;;29.96;39.57;100548.75;1811268;78;20974;-72
2021/06/17 06:38:02;;;;;;;5.22;2.70;;;;;;;29.98;38.99;100557.44;1800194;77;21044;-69
2021/06/17 06:40:30;;;;;;;2.83;2.40;;;;;;;29.94;39.58;100548.12;1788804;77;21114;-73
2021/06/17 06:42:58;;;;;;;8.58;2.77;;;;;;;30.01;39.09;100555.70;1797389;77;20931;-79
2021/06/17 06:45:26;;;;;;;3.62;2.70;;;;;;;30.05;39.21;100555.61;1751682;79;21240;-70
2021/06/17 06:47:55;;;;;;;8.58;2.65;;;;;;;30.10;39.92;100552.33;1738902;81;20911;-69
2021/06/17 06:50:23;;;;;;;5.20;2.95;;;;;;;30.21;39.97;100552.27;1744234;81;20931;-73
2021/06/17 06:52:50;;;;;;;4.85;2.65;;;;;;;30.39;39.22;100556.58;1751352;80;21267;-70
2021/06/17 06:55:19;;;;;;;4.70;2.50;;;;;;;30.55;38.65;100556.19;1763112;79;20971;-73
2021/06/17 06:57:47;;;;;;;5.08;3.12;;;;;;;30.63;38.53;100552.52;1735403;79;21061;-72
2021/06/17 07:00:16;;;;;;;2.83;2.15;;;;;;;30.65;38.50;100555.83;1740413;81;21015;-72
2021/06/17 07:02:43;;;;;;;4.70;2.65;;;;;;;30.58;38.31;100554.98;1745723;80;21597;-76
2021/06/17 07:05:11;;;;;;;7.60;3.00;;;;;;;30.43;38.80;100559.98;1764719;79;20997;-74
2021/06/17 07:07:39;;;;;;;3.90;2.90;;;;;;;30.40;38.65;100562.23;1765935;79;21438;-68
2021/06/17 07:10:08;;;;;;;8.08;3.08;;;;;;;30.39;39.02;100557.38;1762534;79;21332;-73
2021/06/17 07:12:36;;;;;;;3.62;2.90;;;;;;;30.34;38.37;100566.59;1765540;80;20903;-69
2021/06/17 07:15:06;;;;;;;3.47;2.90;;;;;;;30.08;38.77;100567.30;1764150;79;21054;-82
2021/06/17 07:17:34;;;;;;;6.03;2.90;;;;;;;29.89;40.05;100572.05;1776836;79;22277;-74
2021/06/17 07:20:02;;;;;;;4.05;2.72;;;;;;;29.77;40.18;100572.28;1765814;80;21414;-75
2021/06/17 07:22:33;;;;;;;3.17;2.87;;;;;;;29.82;40.25;100573.86;1772088;79;20901;-74
2021/06/17 07:25:01;;;;;;;3.58;3.25;;;;;;;29.82;40.46;100581.41;1774291;78;20950;-74
2021/06/17 07:27:31;;;;;;;8.05;3.08;;;;;;;29.82;40.01;100581.41;1749640;80;21021;-72
2021/06/17 07:30:01;;;;;;;4.22;2.70;;;;;;;29.86;40.17;100580.50;1765075;79;21074;-74
2021/06/17 07:32:34;;;;;;;6.37;3.20;;;;;;;29.86;40.76;100586.70;1741946;81;21022;-73
2021/06/17 07:35:02;;;;;;;3.12;2.62;;;;;;;29.99;39.90;100585.12;1772725;80;21005;-71
2021/06/17 07:37:29;;;;;;;4.12;2.87;;;;;;;30.02;40.11;100588.75;1805589;77;20965;-76
2021/06/17 07:39:56;;;;;;;4.83;3.00;;;;;;;29.98;40.20;100586.98;1808496;77;21076;-71
2021/06/17 07:42:24;;;;;;;6.42;2.98;;;;;;;29.93;40.20;100606.05;1801759;78;21992;-68
2021/06/17 07:44:52;;;;;;;4.28;3.02;;;;;;;29.92;40.71;100580.22;1808717;78;21401;-71
2021/06/17 07:47:19;;;;;;;4.50;2.62;;;;;;;29.96;40.71;100586.34;1796914;77;20997;-67
2021/06/17 07:49:46;;;;;;;4.55;3.37;;;;;;;29.93;41.07;100593.45;1808191;78;20977;-73
2021/06/17 07:52:15;;;;;;;3.75;2.83;;;;;;;29.93;40.42;100585.91;1815214;77;21464;-66
2021/06/17 07:54:43;;;;;;;9.90;3.10;;;;;;;29.99;39.98;100595.34;1823213;77;22322;-76
2021/06/17 07:57:10;;;;;;;4.15;2.90;;;;;;;29.96;39.70;100589.03;1795765;78;20935;-75
2021/06/17 07:59:38;;;;;;;5.55;2.80;;;;;;;29.95;40.11;100595.42;1783812;78;20911;-76
2021/06/17 08:02:05;;;;;;;4.22;2.60;;;;;;;29.95;40.68;100599.45;1796282;78;20937;-72
2021/06/17 08:04:32;;;;;;;3.60;2.70;;;;;;;30.01;40.21;100601.35;1753451;80;21594;-73
2021/06/17 08:06:59;;;;;;;5.65;2.92;;;;;;;30.03;40.59;100589.06;1799042;79;21044;-72
2021/06/17 08:09:27;;;;;;;3.52;2.80;;;;;;;30.03;40.79;100585.04;1788412;78;20938;-72
2021/06/17 08:11:56;;;;;;;6.70;3.15;;;;;;;30.05;40.68;100599.09;1794585;79;21415;-74
2021/06/17 08:14:27;;;;;;;5.33;2.90;;;;;;;29.92;40.39;100590.45;1792839;79;20942;-72
2021/06/17 08:16:56;;;;;;;3.70;2.62;;;;;;;29.61;40.30;100610.16;1759159;79;21588;-82
2021/06/17 08:19:29;;;;;;;4.15;2.70;;;;;;;29.29;41.70;100616.91;1798534;79;21558;-74
2021/06/17 08:21:57;;;;;;;6.03;3.02;;;;;;;29.07;41.28;100600.86;1787925;79;21021;-77
2021/06/17 08:24:25;;;;;;;8.03;2.85;;;;;;;29.07;42.20;100604.05;1784195;79;20931;-73
2021/06/17 08:26:51;;;;;;;5.20;2.87;;;;;;;29.20;42.67;100594.25;1796042;79;20951;-80
2021/06/17 08:29:19;;;;;;;5.87;2.27;;;;;;;29.35;42.39;100618.31;1789463;79;21481;-74
2021/06/17 08:31:47;;;;;;;3.80;2.90;;;;;;;29.34;41.70;100605.09;1799678;78;21307;-69
2021/06/17 08:34:15;;;;;;;4.37;2.65;;;;;;;29.37;41.98;100608.73;1781832;79;20943;-67
2021/06/17 08:36:42;;;;;;;3.85;2.55;;;;;;;29.32;41.14;100603.95;1798686;78;20958;-73
2021/06/17 08:39:10;;;;;;;5.25;3.20;;;;;;;29.14;40.68;100600.41;1731132;81;21034;-70
2021/06/17 08:41:38;;;;;;;5.25;2.85;;;;;;;29.00;42.33;100605.84;1700605;82;21556;-70
2021/06/17 08:44:06;;;;;;;3.00;2.80;;;;;;;28.98;41.89;100606.53;1734722;80;21080;-72
2021/06/17 08:46:33;;;;;;;4.45;2.70;;;;;;;28.90;42.23;100602.63;1784215;79;20973;-67
2021/06/17 08:49:01;;;;;;;2.98;2.77;;;;;;;28.83;42.43;100603.39;1785958;79;21464;-68
2021/06/17 08:51:29;;;;;;;2.83;2.62;;;;;;;28.82;40.97;100608.44;1780527;79;21476;-72
2021/06/17 08:53:56;;;;;;;3.42;2.40;;;;;;;28.79;41.28;100603.97;1784547;79;21013;-70
2021/06/17 08:56:24;;;;;;;3.67;2.50;;;;;;;28.67;41.90;100601.45;1797241;78;21113;-69
2021/06/17 08:58:54;;;;;;;5.00;2.62;;;;;;;28.44;43.34;100607.78;1803190;78;21012;-68
2021/06/17 09:01:21;;;;;;;3.92;2.45;;;;;;;28.39;43.56;100603.50;1795813;78;20981;-74
2021/06/17 09:03:48;;;;;;;5.00;3.00;;;;;;;28.34;42.90;100607.78;1796062;78;21150;-72
2021/06/17 09:06:18;;;;;;;4.90;2.95;;;;;;;28.32;42.78;100607.97;1778933;80;21040;-78
2021/06/17 09:08:59;;;;;;;4.33;2.67;;;;;;;28.41;43.39;100609.50;1790574;78;21128;-73
2021/06/17 09:11:28;;;;;;;4.25;2.65;;;;;;;28.47;42.36;100611.42;1804017;78;21533;-75
2021/06/17 09:14:17;;;;;;;6.37;2.75;;;;;;;28.37;42.17;100600.20;1831321;78;20958;-70
2021/06/17 09:17:04;;;;;;;2.55;2.35;;;;;;;28.26;42.77;100604.70;1830155;78;20938;-75
2021/06/17 09:19:47;;;;;;;4.40;2.65;;;;;;;28.13;42.92;100609.84;1789261;78;21468;-71
2021/06/17 09:22:17;;;;;;;4.83;2.22;;;;;;;28.06;43.74;100606.23;1830509;78;21054;-73
2021/06/17 09:24:48;;;;;;;2.58;2.25;;;;;;;28.21;43.30;100605.77;1830371;78;20985;-75
2021/06/17 09:27:43;;;;;;;5.30;2.40;;;;;;;28.34;42.87;100605.11;1830734;78;20890;-75
2021/06/17 09:30:18;;;;;;;4.22;3.00;;;;;;;28.33;42.93;100627.05;1828951;78;20859;-75
2021/06/17 09:32:53;;;;;;;3.22;2.58;;;;;;;28.19;43.10;100613.95;1829519;78;21513;-76
2021/06/17 09:35:24;;;;;;;3.12;2.80;;;;;;;28.07;43.22;100610.08;1830342;78;21808;-73
2021/06/17 09:37:53;;;;;;;6.15;2.77;;;;;;;28.02;44.00;100615.15;1830299;78;20926;-74
2021/06/17 09:40:44;;;;;;;4.05;2.60;;;;;;;28.07;44.30;100610.58;1830228;78;21410;-80
2021/06/17 09:43:20;;;;;;;4.70;2.75;;;;;;;28.17;44.05;100617.32;1793906;80;20981;-77
2021/06/17 09:45:55;;;;;;;5.20;2.62;;;;;;;28.13;43.46;100605.83;1792637;80;20941;-76
2021/06/17 09:48:47;;;;;;;;;;;;;;;28.02;43.61;100611.13;1791128;80;21066;-80
2021/06/17 09:51:38;;;;;;;2.98;2.60;;;;;;;27.93;44.00;100610.09;1773613;80;20120;-76
2021/06/17 09:54:20;;;;;;;6.67;2.80;;;;;;;27.77;43.58;100610.59;1794659;78;20981;-77
2021/06/17 09:56:51;;;;;;;2.85;2.40;;;;;;;27.61;44.31;100608.58;1808735;78;20970;-66
2021/06/17 09:59:49;;;;;;;7.08;2.75;;;;;;;27.52;44.41;100604.64;1806341;79;20989;-78
2021/06/17 10:02:24;;;;;;;5.97;3.02;;;;;;;27.51;43.97;100605.65;1804868;79;21561;-81
2021/06/17 10:04:54;;;;;;;3.98;2.35;;;;;;;27.58;43.52;100607.60;1795659;77;20970;-76
2021/06/17 10:07:22;;;;;;;3.50;2.42;;;;;;;27.73;42.49;100609.80;1753534;80;21472;-69
2021/06/17 10:09:49;;;;;;;4.53;2.42;;;;;;;27.85;43.60;100607.83;1734853;82;21008;-68
2021/06/17 10:12:16;;;;;;;3.95;2.33;;;;;;;27.96;43.85;100608.39;1782191;80;21498;-74
2021/06/17 10:14:43;;;;;;;4.00;2.37;;;;;;;27.94;42.77;100615.27;1722649;82;21631;-72
2021/06/17 10:17:10;;;;;;;5.80;2.70;;;;;;;27.86;42.62;100609.49;1774575;79;20895;-70
2021/06/17 10:19:37;;;;;;;3.92;2.30;;;;;;;27.85;43.70;100606.49;1787509;80;21015;-70
2021/06/17 10:22:04;;;;;;;2.87;2.60;;;;;;;27.95;44.08;100610.23;1764237;80;21537;-67
2021/06/17 10:24:35;;;;;;;3.10;2.35;;;;;;;27.98;43.76;100602.34;1775600;80;20978;-68
2021/06/17 10:27:10;;;;;;;6.22;2.75;;;;;;;28.01;43.83;100604.12;1722050;82;21128;-70
2021/06/17 10:29:47;;;;;;;6.95;2.58;;;;;;;27.98;43.12;100598.33;1750680;80;21153;-67
2021/06/17 10:32:17;;;;;;;3.70;2.12;;;;;;;27.93;42.05;100600.22;1768345;80;20900;-73
2021/06/17 10:34:53;;;;;;;11.08;2.50;;;;;;;27.88;41.22;100590.57;1749796;79;20983;-74
2021/06/17 10:50:19;;;;;;;2.75;2.22;;;;;;;28.27;41.93;100590.80;1869353;76;22763;-71
2021/06/17 10:52:46;;;;;;;3.95;2.40;;;;;;;28.03;42.09;100590.55;1823587;77;21086;-72
2021/06/17 10:55:18;;;;;;;3.22;2.30;;;;;;;27.81;42.63;100596.34;1822333;78;20972;-74
2021/06/17 10:57:54;;;;;;;6.17;2.55;;;;;;;27.69;41.99;100589.27;1800097;79;21034;-73
2021/06/17 11:00:30;;;;;;;2.85;2.37;;;;;;;27.66;42.06;100593.64;1783927;78;21475;-77
2021/06/17 11:03:10;;;;;;;6.00;2.50;;;;;;;27.67;42.13;100585.94;1816309;78;20966;-73
2021/06/17 11:05:49;;;;;;;5.67;2.85;;;;;;;27.68;42.22;100583.59;1814014;78;20967;-72
2021/06/17 11:08:25;;;;;;;4.30;2.47;;;;;;;27.74;43.14;100586.04;1800434;79;21150;-71
2021/06/17 11:11:04;;;;;;;8.00;2.35;;;;;;;27.80;41.49;100592.83;1823779;78;20993;-69
2021/06/17 11:13:40;;;;;;;5.12;2.50;;;;;;;27.72;39.50;100592.08;1808262;78;20921;-73
2021/06/17 11:16:19;;;;;;;3.75;2.50;;;;;;;27.58;40.98;100596.91;1797413;78;21458;-70
2021/06/17 11:18:57;;;;;;;3.80;2.65;;;;;;;27.47;41.97;100594.98;1822638;78;20906;-68
2021/06/17 11:21:27;;;;;;;3.90;2.60;;;;;;;27.36;42.27;100591.91;1822807;78;21412;-69
2021/06/17 11:24:09;;;;;;;3.77;2.58;;;;;;;27.32;42.61;100584.76;1805827;78;20934;-67
2021/06/17 11:26:45;;;;;;;7.05;2.40;;;;;;;27.35;42.66;100586.23;1845785;77;21001;-68
2021/06/17 12:05:26;;;;;;;2.90;2.27;;;;;;;28.00;41.03;100577.53;1828695;77;22685;-69
2021/06/17 12:07:59;;;;;;;2.35;2.20;;;;;;;27.96;41.73;100578.44;1800246;79;20874;-64
2021/06/17 12:10:31;;;;;;;2.55;2.30;;;;;;;27.97;41.13;100580.61;1800039;79;21329;-69
2021/06/17 12:13:00;;;;;;;5.80;2.52;;;;;;;27.92;41.28;100580.33;1800774;79;20923;-66
2021/06/17 12:15:41;;;;;;;3.30;2.40;;;;;;;27.82;41.79;100581.94;1800069;79;21540;-66
2021/06/17 12:18:11;;;;;;;2.35;2.15;;;;;;;27.72;41.31;100588.90;1800182;79;20938;-68
2021/06/17 12:20:40;;;;;;;6.83;2.50;;;;;;;27.65;42.46;100577.77;1799907;79;20927;-72
2021/06/17 12:23:20;;;;;;;6.05;2.55;;;;;;;27.59;42.42;100574.02;1800713;79;21113;-62
2021/06/17 12:26:00;;;;;;;3.20;2.27;;;;;;;27.57;41.45;100576.01;1799426;79;20919;-75
2021/06/17 12:28:29;;;;;;;5.40;2.50;;;;;;;27.53;41.20;100570.69;1784677;79;20954;-73
2021/06/17 12:30:58;;;;;;;9.38;3.00;;;;;;;27.50;42.20;100561.70;1799818;79;21516;-82
2021/06/17 12:33:28;;;;;;;3.08;2.77;;;;;;;27.52;41.92;100576.55;1800724;79;20976;-68
2021/06/17 12:36:02;;;;;;;4.03;2.75;;;;;;;27.50;42.33;100565.20;1800237;79;21125;-70
2021/06/17 12:38:35;;;;;;;6.20;2.83;;;;;;;27.42;42.12;100564.45;1800559;79;21397;-83
2021/06/17 12:41:18;;;;;;;3.00;2.25;;;;;;;27.28;42.00;100565.24;1800412;79;20923;-65
2021/06/17 12:43:49;;;;;;;4.33;2.65;;;;;;;27.11;42.29;100563.23;1800196;79;20965;-69
2021/06/17 12:46:19;;;;;;;5.30;2.58;;;;;;;27.02;43.03;100562.47;1800395;79;20927;-66
2021/06/17 13:12:42;;;;;;;2.87;2.50;;;;;;;27.18;42.95;100544.97;1835924;77;22637;-65
2021/06/17 13:15:14;;;;;;;3.05;2.45;;;;;;;27.22;42.82;100537.38;1793461;80;20930;-68
2021/06/17 13:17:50;;;;;;;4.47;2.40;;;;;;;27.29;42.79;100549.52;1790757;78;21853;-69
2021/06/17 13:20:21;;;;;;;3.70;3.17;;;;;;;27.32;42.46;100549.99;1761747;80;20942;-74
2021/06/17 13:22:55;;;;;;;2.80;2.58;;;;;;;27.31;42.28;100562.20;1756591;80;20989;-76
2021/06/17 13:25:33;;;;;;;7.28;3.20;;;;;;;27.21;42.14;100559.78;1789377;80;20923;-72
2021/06/17 13:28:05;;;;;;;5.92;2.60;;;;;;;27.09;42.48;100559.91;1793862;79;20929;-71
2021/06/17 13:30:34;;;;;;;2.98;2.40;;;;;;;26.98;42.72;100558.49;1789875;79;21551;-74
2021/06/17 13:33:04;;;;;;;2.85;2.65;;;;;;;26.96;43.09;100555.17;1794011;79;20935;-75
2021/06/17 13:35:34;;;;;;;2.80;2.52;;;;;;;27.02;43.13;100557.12;1793915;79;21024;-68
2021/06/17 13:38:01;;;;;;;2.75;2.52;;;;;;;27.17;43.15;100558.00;1766334;80;20986;-68
2021/06/17 13:40:29;;;;;;;4.50;3.00;;;;;;;27.30;43.30;100565.39;1794759;80;21047;-67
2021/06/17 13:42:58;;;;;;;2.72;2.52;;;;;;;27.35;42.34;100568.86;1790393;80;22511;-67
2021/06/17 13:45:25;;;;;;;3.50;2.83;;;;;;;27.30;42.13;100572.58;1795359;79;20962;-67
2021/06/17 13:47:52;;;;;;;3.65;3.02;;;;;;;27.20;42.27;100568.31;1793658;78;20943;-67
2021/06/17 13:50:20;;;;;;;5.33;2.98;;;;;;;27.13;42.25;100566.06;1793887;80;21549;-74
2021/06/17 13:52:48;;;;;;;3.40;2.70;;;;;;;27.08;42.36;100564.42;1793042;79;21003;-65
2021/06/17 13:55:15;;;;;;;3.87;2.80;;;;;;;27.08;43.05;100565.77;1794453;79;21717;-65
2021/06/17 13:57:48;;;;;;;5.85;2.80;;;;;;;27.13;43.57;100563.89;1776664;80;20893;-65
2021/06/17 14:00:18;;;;;;;4.70;2.60;;;;;;;27.23;43.42;100575.14;1800227;79;21008;-66
2021/06/17 14:02:48;;;;;;;6.30;2.62;;;;;;;27.31;41.38;100583.09;1786604;80;20954;-72
